createdAt,value
2022-10-22T00:01:20.284Z,76.45
2022-10-22T00:03:51.381Z,76.47
2022-10-22T00:06:22.151Z,76.55
2022-10-22T00:08:52.864Z,76.51
2022-10-22T00:11:23.727Z,76.52
2022-10-22T00:13:54.924Z,76.69
2022-10-22T00:16:25.870Z,76.77
2022-10-22T00:18:56.526Z,76.72
2022-10-22T00:21:29.103Z,76.67
2022-10-22T00:23:58.205Z,76.70
2022-10-22T00:26:29.216Z,76.47
2022-10-22T00:28:59.866Z,76.41
2022-10-22T00:31:30.589Z,76.35
2022-10-22T00:34:01.339Z,76.30
2022-10-22T00:36:32.067Z,76.06
2022-10-22T00:39:02.867Z,76.09
2022-10-22T00:41:33.663Z,75.86
2022-10-22T00:44:07.271Z,75.71
2022-10-22T00:46:37.934Z,75.64
2022-10-22T00:49:08.716Z,75.51
2022-10-22T00:51:39.455Z,75.40
2022-10-22T00:54:11.691Z,75.35
2022-10-22T00:56:42.546Z,75.33
2022-10-22T00:59:16.831Z,75.28
2022-10-22T01:01:48.078Z,75.10
2022-10-22T01:04:19.931Z,74.84
2022-10-22T01:06:50.828Z,75.05
2022-10-22T01:09:31.714Z,74.92
2022-10-22T01:12:11.026Z,74.98
2022-10-22T01:14:52.737Z,74.98
2022-10-22T01:17:33.297Z,74.88
2022-10-22T01:20:17.989Z,74.75
2022-10-22T01:22:57.709Z,74.62
2022-10-22T01:25:36.432Z,74.72
2022-10-22T01:28:20.618Z,74.76
2022-10-22T01:30:55.838Z,74.71
2022-10-22T01:33:28.278Z,74.66
2022-10-22T01:36:01.033Z,74.73
2022-10-22T01:38:32.819Z,74.70
2022-10-22T01:41:04.125Z,74.74
2022-10-22T01:43:35.019Z,74.84
2022-10-22T01:46:08.389Z,74.73
2022-10-22T01:48:52.599Z,74.81
2022-10-22T01:51:39.792Z,74.90
2022-10-22T01:54:22.176Z,74.86
2022-10-22T01:57:02.776Z,74.90
2022-10-22T01:59:43.957Z,75.07
2022-10-22T02:02:27.144Z,75.07
2022-10-22T02:05:02.199Z,75.10
2022-10-22T02:07:36.747Z,75.02
2022-10-22T02:10:10.558Z,75.05
2022-10-22T02:12:43.953Z,75.11
2022-10-22T02:15:16.705Z,75.11
2022-10-22T02:17:48.839Z,75.09
2022-10-22T02:20:23.921Z,75.07
2022-10-22T02:22:55.576Z,75.09
2022-10-22T02:25:30.644Z,75.03
2022-10-22T02:28:06.037Z,75.03
2022-10-22T02:30:40.042Z,74.95
2022-10-22T02:33:14.099Z,74.87
2022-10-22T02:35:46.243Z,74.77
2022-10-22T02:38:17.876Z,74.97
2022-10-22T02:40:49.208Z,74.99
2022-10-22T02:43:20.469Z,74.89
2022-10-22T02:45:51.128Z,74.81
2022-10-22T02:48:21.991Z,74.77
2022-10-22T02:50:52.984Z,74.64
2022-10-22T02:53:23.713Z,74.63
2022-10-22T02:55:54.475Z,74.75
2022-10-22T02:58:25.162Z,74.79
2022-10-22T03:00:56.125Z,74.97
2022-10-22T03:03:26.931Z,74.98
2022-10-22T03:05:57.621Z,74.93
2022-10-22T03:08:28.527Z,74.94
2022-10-22T03:10:59.356Z,75.06
2022-10-22T03:13:30.085Z,75.15
2022-10-22T03:16:00.927Z,75.08
2022-10-22T03:18:31.601Z,75.22
2022-10-22T03:21:10.986Z,75.16
2022-10-22T03:23:43.737Z,75.05
2022-10-22T03:26:15.762Z,75.18
2022-10-22T03:28:48.423Z,75.06
2022-10-22T03:31:19.301Z,75.19
2022-10-22T03:33:50.063Z,75.12
2022-10-22T03:36:20.896Z,75.19
2022-10-22T03:38:51.577Z,75.26
2022-10-22T03:41:22.393Z,75.29
2022-10-22T03:43:53.980Z,75.30
2022-10-22T03:46:24.812Z,75.37
2022-10-22T03:48:55.501Z,75.41
2022-10-22T03:51:27.402Z,75.53
2022-10-22T03:53:58.090Z,75.59
2022-10-22T03:56:28.913Z,75.70
2022-10-22T03:59:02.023Z,75.76
2022-10-22T04:01:33.723Z,75.61
2022-10-22T04:04:04.521Z,75.74
2022-10-22T04:06:35.210Z,75.79
2022-10-22T04:09:06.082Z,75.62
2022-10-22T04:11:36.824Z,75.69
2022-10-22T04:14:08.147Z,75.54
2022-10-22T04:16:40.180Z,75.49
2022-10-22T04:19:11.225Z,75.47
2022-10-22T04:21:42.395Z,75.36
2022-10-22T04:24:12.997Z,75.39
2022-10-22T04:26:43.999Z,75.45
2022-10-22T04:29:16.197Z,75.34
2022-10-22T04:31:47.357Z,75.23
2022-10-22T04:34:18.179Z,75.12
2022-10-22T04:36:48.868Z,75.08
2022-10-22T04:39:19.524Z,75.03
2022-10-22T04:41:50.136Z,75.01
2022-10-22T04:44:20.910Z,74.99
2022-10-22T04:46:51.868Z,74.91
2022-10-22T04:49:22.558Z,74.98
2022-10-22T04:51:54.626Z,75.03
2022-10-22T04:54:27.800Z,74.95
2022-10-22T04:57:02.950Z,74.99
2022-10-22T04:59:33.824Z,74.81
2022-10-22T05:02:04.509Z,74.91
2022-10-22T05:04:35.144Z,74.89
2022-10-22T05:07:05.871Z,74.83
2022-10-22T05:09:36.488Z,74.91
2022-10-22T05:12:07.981Z,74.80
2022-10-22T05:14:42.646Z,74.91
2022-10-22T05:17:15.645Z,74.81
2022-10-22T05:19:46.301Z,74.76
2022-10-22T05:22:16.949Z,74.84
2022-10-22T05:24:49.161Z,74.69
2022-10-22T05:29:55.545Z,74.82
2022-10-22T05:32:26.351Z,74.72
2022-10-22T05:34:57.063Z,74.78
2022-10-22T05:37:27.823Z,74.67
2022-10-22T05:40:12.337Z,74.92
2022-10-22T05:42:49.308Z,74.79
2022-10-22T05:45:20.171Z,74.93
2022-10-22T05:47:50.909Z,75.11
2022-10-22T05:50:21.536Z,75.20
2022-10-22T05:52:52.220Z,75.09
2022-10-22T05:55:23.033Z,74.96
2022-10-22T05:57:53.832Z,74.98
2022-10-22T06:00:24.796Z,75.21
2022-10-22T06:02:55.827Z,75.18
2022-10-22T06:05:26.439Z,75.22
2022-10-22T06:07:58.421Z,75.10
2022-10-22T06:10:29.416Z,75.17
2022-10-22T06:13:01.664Z,75.06
2022-10-22T06:15:32.480Z,75.02
2022-10-22T06:18:03.209Z,74.91
2022-10-22T06:20:34.859Z,74.86
2022-10-22T06:23:06.194Z,74.94
2022-10-22T06:25:36.914Z,74.94
2022-10-22T06:28:07.839Z,74.83
2022-10-22T06:30:42.960Z,74.84
2022-10-22T06:33:16.505Z,74.96
2022-10-22T06:35:48.658Z,75.03
2022-10-22T06:38:19.537Z,75.03
2022-10-22T06:40:50.183Z,74.95
2022-10-22T06:43:21.000Z,74.92
2022-10-22T06:45:51.814Z,74.99
2022-10-22T06:48:22.508Z,74.87
2022-10-22T06:50:53.259Z,74.79
2022-10-22T06:53:24.074Z,75.01
2022-10-22T06:55:54.858Z,74.83
2022-10-22T06:58:26.043Z,74.82
2022-10-22T07:01:05.442Z,74.78
2022-10-22T07:03:36.552Z,74.84
2022-10-22T07:06:09.364Z,74.96
2022-10-22T07:08:40.892Z,75.03
2022-10-22T07:11:13.146Z,75.07
2022-10-22T07:13:44.570Z,74.97
2022-10-22T07:16:16.027Z,75.00
2022-10-22T07:18:47.843Z,75.30
2022-10-22T07:21:20.386Z,75.21
2022-10-22T07:23:51.255Z,75.25
2022-10-22T07:26:22.057Z,75.02
2022-10-22T07:28:52.769Z,75.08
2022-10-22T07:31:23.760Z,74.83
2022-10-22T07:33:54.525Z,74.69
2022-10-22T07:36:25.245Z,74.58
2022-10-22T07:38:59.015Z,74.66
2022-10-22T07:41:31.014Z,74.81
2022-10-22T07:44:02.068Z,74.92
2022-10-22T07:46:32.824Z,75.03
2022-10-22T07:49:03.616Z,75.21
2022-10-22T07:51:34.284Z,75.37
2022-10-22T07:54:05.402Z,75.56
2022-10-22T07:56:36.043Z,75.75
2022-10-22T07:59:06.745Z,76.06
2022-10-22T08:01:37.430Z,76.42
2022-10-22T08:04:09.881Z,76.44
2022-10-22T08:06:44.451Z,76.57
2022-10-22T08:09:16.832Z,76.91
2022-10-22T08:11:47.595Z,77.06
2022-10-22T08:14:18.262Z,77.36
2022-10-22T08:16:49.189Z,78.07
2022-10-22T08:19:21.278Z,78.55
2022-10-22T08:21:52.032Z,78.56
2022-10-22T08:24:22.751Z,79.02
2022-10-22T08:26:54.379Z,79.13
2022-10-22T08:29:26.738Z,79.47
2022-10-22T08:31:57.481Z,79.75
2022-10-22T08:34:28.129Z,79.90
2022-10-22T08:36:58.852Z,79.97
2022-10-22T08:39:31.275Z,80.09
2022-10-22T08:42:14.931Z,80.68
2022-10-22T08:45:01.702Z,81.21
2022-10-22T08:47:49.178Z,81.24
2022-10-22T08:50:24.575Z,81.10
2022-10-22T08:52:59.981Z,81.50
2022-10-22T08:55:36.517Z,81.20
2022-10-22T08:58:18.857Z,81.74
2022-10-22T09:00:59.512Z,82.02
2022-10-22T09:03:42.580Z,81.82
2022-10-22T09:06:16.260Z,81.32
2022-10-22T09:08:48.726Z,81.14
2022-10-22T09:11:24.765Z,81.13
2022-10-22T09:13:57.337Z,81.11
2022-10-22T09:16:39.957Z,81.12
2022-10-22T09:19:25.035Z,80.97
2022-10-22T09:22:04.884Z,81.16
2022-10-22T09:24:39.876Z,81.09
2022-10-22T09:27:17.191Z,81.15
2022-10-22T09:29:49.223Z,81.39
2022-10-22T09:32:21.045Z,81.37
2022-10-22T09:34:56.657Z,81.21
2022-10-22T09:37:29.706Z,81.17
2022-10-22T09:40:05.251Z,81.20
2022-10-22T09:42:36.181Z,81.08
2022-10-22T09:45:08.414Z,81.01
2022-10-22T09:48:00.556Z,80.69
2022-10-22T09:50:44.164Z,80.54
2022-10-22T09:53:28.484Z,80.38
2022-10-22T09:56:02.040Z,80.24
2022-10-22T09:58:42.663Z,79.98
2022-10-22T10:01:21.141Z,79.88
2022-10-22T10:03:50.903Z,79.67
2022-10-22T10:06:23.789Z,79.43
2022-10-22T10:08:54.506Z,78.90
2022-10-22T10:11:33.695Z,78.70
2022-10-22T10:14:16.886Z,78.12
2022-10-22T10:16:58.324Z,77.00
2022-10-22T10:19:51.271Z,76.23
2022-10-22T10:22:39.079Z,75.66
2022-10-22T10:25:33.815Z,75.38
2022-10-22T10:28:17.774Z,75.86
2022-10-22T10:30:56.072Z,75.63
2022-10-22T10:33:42.266Z,75.12
2022-10-22T10:36:18.281Z,74.53
2022-10-22T10:38:58.062Z,74.41
2022-10-22T10:41:38.699Z,74.39
2022-10-22T10:44:36.075Z,74.45
2022-10-22T10:47:19.682Z,74.10
2022-10-22T10:49:53.532Z,74.00
2022-10-22T10:52:37.926Z,73.57
2022-10-22T10:55:20.115Z,73.03
2022-10-22T10:58:00.918Z,72.72
2022-10-22T11:00:40.481Z,72.64
2022-10-22T11:03:36.141Z,72.70
2022-10-22T11:06:11.299Z,72.76
2022-10-22T11:08:45.871Z,72.66
2022-10-22T11:11:22.648Z,72.58
2022-10-22T11:13:59.070Z,72.71
2022-10-22T11:16:36.692Z,72.84
2022-10-22T11:19:22.585Z,73.48
2022-10-22T11:22:05.181Z,73.87
2022-10-22T11:24:44.369Z,74.10
2022-10-22T11:27:31.062Z,74.48
2022-10-22T11:30:07.281Z,74.81
2022-10-22T11:32:39.877Z,75.06
2022-10-22T11:35:17.118Z,75.35
2022-10-22T11:37:49.144Z,75.81
2022-10-22T11:40:22.512Z,76.14
2022-10-22T11:42:56.570Z,76.04
2022-10-22T11:45:35.261Z,75.83
2022-10-22T11:48:20.004Z,76.31
2022-10-22T11:50:56.805Z,76.06
2022-10-22T11:53:34.826Z,76.11
2022-10-22T11:56:26.568Z,76.07
2022-10-22T11:58:58.219Z,75.85
2022-10-22T12:01:40.914Z,76.03
2022-10-22T12:04:24.336Z,76.22
2022-10-22T12:07:00.980Z,76.26
2022-10-22T12:09:34.376Z,76.37
2022-10-22T12:12:16.743Z,76.38
2022-10-22T12:14:59.317Z,76.51
2022-10-22T12:17:32.245Z,76.59
2022-10-22T12:20:09.265Z,76.70
2022-10-22T12:22:41.226Z,76.98
2022-10-22T12:25:23.045Z,76.84
2022-10-22T12:27:57.181Z,76.51
2022-10-22T12:30:30.678Z,76.61
2022-10-22T12:33:03.436Z,76.60
2022-10-22T12:35:36.708Z,76.52
2022-10-22T12:38:16.657Z,76.60
2022-10-22T12:40:48.904Z,76.64
2022-10-22T12:43:24.804Z,76.62
2022-10-22T12:45:55.919Z,76.43
2022-10-22T12:48:29.637Z,76.29
2022-10-22T12:51:02.569Z,76.35
2022-10-22T12:53:37.782Z,76.25
2022-10-22T12:56:12.911Z,75.99
2022-10-22T12:58:46.850Z,75.98
2022-10-22T13:01:19.362Z,75.76
2022-10-22T13:03:51.642Z,75.54
2022-10-22T13:06:26.068Z,75.37
2022-10-22T13:09:07.579Z,75.32
2022-10-22T13:11:42.304Z,75.55
2022-10-22T13:14:29.068Z,75.91
2022-10-22T13:17:18.215Z,74.93
2022-10-22T13:20:05.288Z,73.13
2022-10-22T13:22:38.186Z,72.62
2022-10-22T13:25:26.283Z,71.75
2022-10-22T13:27:59.145Z,71.00
2022-10-22T13:30:31.780Z,71.01
2022-10-22T13:33:04.503Z,70.76
2022-10-22T13:35:37.976Z,70.36
2022-10-22T13:38:20.082Z,69.88
2022-10-22T13:40:51.310Z,69.86
2022-10-22T13:43:22.575Z,69.64
2022-10-22T13:45:58.515Z,69.84
2022-10-22T13:48:31.580Z,69.32
2022-10-22T13:51:02.256Z,69.30
2022-10-22T13:53:33.495Z,69.17
2022-10-22T13:56:04.150Z,69.30
2022-10-22T13:58:34.900Z,69.12
2022-10-22T14:01:08.897Z,68.97
2022-10-22T14:03:40.819Z,68.99
2022-10-22T14:06:15.854Z,68.86
2022-10-22T14:08:50.611Z,68.89
2022-10-22T14:11:21.512Z,68.71
2022-10-22T14:13:52.219Z,68.74
2022-10-22T14:16:25.240Z,68.76
2022-10-22T14:18:56.886Z,68.81
2022-10-22T14:21:30.096Z,68.57
2022-10-22T14:24:00.670Z,68.78
2022-10-22T14:26:35.242Z,68.75
2022-10-22T14:29:10.277Z,68.86
2022-10-22T14:31:44.526Z,68.72
2022-10-22T14:34:17.035Z,68.64
2022-10-22T14:36:47.697Z,68.70
2022-10-22T14:39:19.129Z,68.78
2022-10-22T14:41:50.369Z,68.82
2022-10-22T14:44:21.061Z,68.64
2022-10-22T14:46:54.410Z,68.73
2022-10-22T14:49:25.064Z,68.85
2022-10-22T14:51:55.719Z,68.97
2022-10-22T14:54:26.476Z,68.99
2022-10-22T14:56:57.260Z,69.32
2022-10-22T14:59:28.107Z,69.57
2022-10-22T15:01:58.854Z,69.54
2022-10-22T15:04:30.622Z,69.79
2022-10-22T15:07:01.335Z,69.88
2022-10-22T15:09:32.759Z,69.76
2022-10-22T15:12:03.435Z,69.81
2022-10-22T15:14:34.071Z,69.66
2022-10-22T15:17:04.745Z,69.82
2022-10-22T15:19:35.436Z,69.91
2022-10-22T15:22:06.870Z,70.13
2022-10-22T15:24:37.626Z,70.24
2022-10-22T15:27:08.843Z,70.26
2022-10-22T15:29:39.713Z,70.41
2022-10-22T15:32:11.382Z,70.36
2022-10-22T15:34:42.864Z,70.35
2022-10-22T15:37:15.111Z,70.63
2022-10-22T15:39:45.795Z,70.82
2022-10-22T15:42:17.181Z,71.10
2022-10-22T15:44:47.929Z,71.20
2022-10-22T15:47:18.750Z,71.61
2022-10-22T15:49:49.508Z,71.71
2022-10-22T15:52:21.576Z,72.03
2022-10-22T15:54:52.336Z,72.27
2022-10-22T15:57:23.240Z,72.78
2022-10-22T15:59:53.911Z,72.68
2022-10-22T16:02:24.648Z,72.88
2022-10-22T16:04:55.411Z,73.05
2022-10-22T16:07:26.086Z,73.30
2022-10-22T16:10:00.239Z,73.26
2022-10-22T16:12:30.947Z,73.61
2022-10-22T16:15:01.595Z,73.59
2022-10-22T16:17:32.300Z,73.75
2022-10-22T16:20:03.039Z,73.88
2022-10-22T16:22:34.456Z,74.02
2022-10-22T16:25:05.771Z,74.08
2022-10-22T16:27:36.468Z,74.10
2022-10-22T16:30:09.210Z,74.29
2022-10-22T16:32:40.098Z,74.65
2022-10-22T16:35:12.392Z,74.76
2022-10-22T16:37:43.173Z,75.32
2022-10-22T16:40:15.764Z,75.89
2022-10-22T16:42:45.166Z,76.55
2022-10-22T16:47:52.000Z,77.10
2022-10-22T16:50:22.613Z,77.29
2022-10-22T16:52:53.286Z,77.70
2022-10-22T16:55:24.222Z,77.52
2022-10-22T16:57:55.254Z,77.62
2022-10-22T17:00:26.204Z,77.59
2022-10-22T17:02:57.240Z,77.61
2022-10-22T17:05:28.183Z,77.62
2022-10-22T17:07:59.030Z,77.62
2022-10-22T17:10:29.729Z,77.79
2022-10-22T17:13:00.542Z,77.86
2022-10-22T17:15:31.545Z,77.84
2022-10-22T17:18:04.106Z,78.09
2022-10-22T17:20:34.926Z,78.21
2022-10-22T17:23:05.948Z,77.93
2022-10-22T17:25:44.825Z,77.93
2022-10-22T17:28:15.525Z,78.04
2022-10-22T17:30:46.279Z,78.23
2022-10-22T17:33:16.977Z,78.09
2022-10-22T17:35:49.442Z,78.09
2022-10-22T17:38:18.682Z,78.27
2022-10-22T17:40:49.403Z,78.15
2022-10-22T17:43:20.241Z,78.18
2022-10-22T17:45:50.876Z,78.17
2022-10-22T17:48:21.692Z,78.00
2022-10-22T17:50:54.631Z,77.93
2022-10-22T17:53:27.930Z,78.11
2022-10-22T17:56:07.130Z,78.13
2022-10-22T17:58:38.454Z,78.27
2022-10-22T18:01:16.890Z,78.55
2022-10-22T18:03:46.055Z,78.39
2022-10-22T18:06:17.202Z,78.53
2022-10-22T18:08:48.128Z,78.42
2022-10-22T18:11:22.791Z,78.50
2022-10-22T18:13:55.117Z,78.24
2022-10-22T18:16:26.084Z,78.32
2022-10-22T18:18:58.371Z,78.33
2022-10-22T18:21:30.830Z,78.44
2022-10-22T18:24:00.369Z,78.41
2022-10-22T18:26:31.321Z,78.64
2022-10-22T18:29:02.137Z,78.81
2022-10-22T18:31:32.940Z,78.81
2022-10-22T18:34:03.594Z,78.80
2022-10-22T18:36:34.212Z,78.88
2022-10-22T18:39:05.742Z,78.81
2022-10-22T18:41:36.991Z,78.97
2022-10-22T18:44:08.664Z,78.81
2022-10-22T18:46:40.270Z,78.91
2022-10-22T18:49:14.532Z,79.03
2022-10-22T18:51:46.423Z,78.87
2022-10-22T18:54:23.231Z,78.86
2022-10-22T18:56:59.382Z,78.62
2022-10-22T18:59:33.304Z,78.37
2022-10-22T19:02:04.225Z,78.50
2022-10-22T19:04:37.085Z,78.61
2022-10-22T19:09:40.809Z,79.13
2022-10-22T19:12:15.431Z,79.16
2022-10-22T19:14:46.221Z,79.17
2022-10-22T19:17:16.943Z,79.11
2022-10-22T19:19:48.127Z,78.99
2022-10-22T19:22:19.008Z,78.93
2022-10-22T19:24:51.453Z,78.77
2022-10-22T19:27:22.174Z,78.83
2022-10-22T19:29:52.901Z,78.84
2022-10-22T19:32:26.282Z,78.86
2022-10-22T19:34:59.641Z,78.84
2022-10-22T19:37:30.435Z,78.74
2022-10-22T19:40:01.147Z,78.89
2022-10-22T19:42:31.940Z,79.04
2022-10-22T19:45:02.907Z,78.88
2022-10-22T19:47:33.576Z,78.92
2022-10-22T19:50:04.474Z,79.11
2022-10-22T19:52:35.843Z,79.34
2022-10-22T19:55:10.054Z,79.44
2022-10-22T19:57:41.014Z,79.60
2022-10-22T20:00:14.189Z,79.92
2022-10-22T20:02:45.974Z,80.09
2022-10-22T20:05:16.717Z,80.38
2022-10-22T20:07:47.715Z,80.38
2022-10-22T20:10:18.654Z,80.14
2022-10-22T20:12:49.377Z,80.02
2022-10-22T20:15:21.554Z,80.01
2022-10-22T20:17:52.209Z,79.97
2022-10-22T20:20:26.348Z,79.97
2022-10-22T20:22:57.324Z,79.84
2022-10-22T20:25:28.110Z,79.78
2022-10-22T20:27:58.900Z,79.73
2022-10-22T20:30:29.619Z,79.94
2022-10-22T20:33:00.485Z,79.86
2022-10-22T20:35:31.242Z,79.95
2022-10-22T20:38:01.983Z,79.84
2022-10-22T20:40:33.277Z,79.88
2022-10-22T20:43:04.030Z,79.78
2022-10-22T20:45:36.138Z,79.69
2022-10-22T20:48:07.934Z,79.84
2022-10-22T20:50:39.520Z,79.94
2022-10-22T20:53:13.429Z,79.92
2022-10-22T20:55:47.246Z,79.81
2022-10-22T20:58:19.589Z,79.85
2022-10-22T21:00:52.031Z,79.91
2022-10-22T21:03:22.862Z,79.98
2022-10-22T21:05:53.764Z,80.09
2022-10-22T21:08:24.606Z,80.22
2022-10-22T21:10:55.428Z,80.19
2022-10-22T21:13:26.104Z,80.40
2022-10-22T21:15:56.862Z,80.29
2022-10-22T21:18:27.822Z,80.16
2022-10-22T21:21:02.711Z,80.23
2022-10-22T21:23:33.970Z,80.28
2022-10-22T21:26:04.669Z,80.12
2022-10-22T21:28:36.885Z,80.32
2022-10-22T21:31:09.916Z,80.20
2022-10-22T21:33:41.404Z,80.06
2022-10-22T21:36:12.558Z,80.05
2022-10-22T21:38:43.275Z,79.71
2022-10-22T21:41:16.308Z,79.88
2022-10-22T21:43:48.267Z,79.59
2022-10-22T21:46:21.770Z,79.53
2022-10-22T21:48:55.814Z,79.41
2022-10-22T21:51:27.334Z,79.44
2022-10-22T21:53:58.027Z,79.67
2022-10-22T21:56:32.509Z,79.62
2022-10-22T21:59:04.237Z,79.78
2022-10-22T22:01:35.693Z,79.77
2022-10-22T22:04:07.358Z,79.51
2022-10-22T22:06:37.957Z,79.30
2022-10-22T22:09:08.697Z,78.95
2022-10-22T22:11:39.467Z,78.79
2022-10-22T22:14:10.189Z,79.11
2022-10-22T22:16:41.014Z,78.78
2022-10-22T22:19:13.477Z,78.89
2022-10-22T22:21:44.283Z,78.80
2022-10-22T22:24:15.551Z,78.77
2022-10-22T22:26:46.608Z,78.82
2022-10-22T22:29:17.273Z,79.01
2022-10-22T22:31:48.114Z,79.37
2022-10-22T22:34:19.897Z,79.44
2022-10-22T22:36:50.671Z,79.42
2022-10-22T22:39:23.660Z,79.57
2022-10-22T22:41:54.760Z,79.66
2022-10-22T22:44:25.620Z,79.78
2022-10-22T22:46:56.201Z,80.04
2022-10-22T22:49:26.897Z,80.17
2022-10-22T22:51:57.504Z,80.07
2022-10-22T22:54:28.399Z,80.20
2022-10-22T22:56:59.594Z,80.10
2022-10-22T22:59:30.177Z,80.26
2022-10-22T23:02:01.221Z,80.35
2022-10-22T23:04:31.974Z,80.33
2022-10-22T23:07:02.837Z,80.40
2022-10-22T23:09:33.458Z,80.52
2022-10-22T23:12:05.028Z,80.43
2022-10-22T23:14:35.681Z,80.25
2022-10-22T23:17:06.259Z,80.31
2022-10-22T23:19:36.995Z,80.38
2022-10-22T23:22:07.705Z,80.43
2022-10-22T23:24:38.873Z,80.50
2022-10-22T23:27:11.043Z,80.62
2022-10-22T23:29:41.760Z,80.62
2022-10-22T23:32:15.575Z,80.65
2022-10-22T23:34:46.188Z,80.47
2022-10-22T23:37:16.867Z,80.42
2022-10-22T23:39:47.478Z,80.55
2022-10-22T23:42:18.149Z,80.60
2022-10-22T23:44:48.944Z,80.84
2022-10-22T23:47:19.633Z,80.80
2022-10-22T23:49:50.383Z,80.76
2022-10-22T23:52:21.128Z,80.88
2022-10-22T23:54:52.456Z,80.78
2022-10-22T23:57:24.061Z,80.74
2022-10-22T23:59:55.838Z,80.93
